Time;durP1;ratioP1;P1;durP2;ratioP2;P2;SDS_P1;SDS_P2;PMS_P1;PMS_P2;Temp;Humidity;BMP_temperature;BMP_pressure;BME280_temperature;BME280_humidity;BME280_pressure;Samples;Min_cycle;Max_cycle;Signal;HPM_P1;HPM_P2
2022/06/12 00:00:11;;;;;;;;;;;;;;;23.26;57.90;100119.47;2035251;28;19937;-56
2022/06/12 00:01:12;;;;;;;;;;;;;;;23.27;58.08;100128.50;2027781;28;19919;-56
2022/06/12 00:02:12;;;;;;;;;;;;;;;23.27;58.19;100125.72;2028197;29;19915;-56
2022/06/12 00:03:14;;;;;;;;;;;;;;;23.27;58.47;100128.50;2028907;28;19914;-55
2022/06/12 00:04:14;;;;;;;;;;;;;;;23.27;58.75;100128.50;2028309;29;19930;-56
2022/06/12 00:05:16;;;;;;;;;;;;;;;23.26;58.34;100127.75;2028640;29;20364;-56
2022/06/12 00:06:18;;;;;;;;;;;;;;;23.27;58.18;100129.28;2031411;28;19906;-55
2022/06/12 00:07:18;;;;;;;;;;;;;;;23.27;57.34;100128.50;2035870;28;20024;-56
2022/06/12 00:08:20;;;;;;;;;;;;;;;23.26;57.02;100119.47;2027088;28;19978;-56
2022/06/12 00:09:20;;;;;;;;;;;;;;;23.27;57.23;100117.44;2031074;28;20345;-56
2022/06/12 00:10:21;;;;;;;;;;;;;;;23.27;57.08;100114.69;2035884;28;20263;-56
2022/06/12 00:11:21;;;;;;;;;;;;;;;23.27;57.42;100106.38;2030504;28;19993;-56
2022/06/12 00:12:22;;;;;;;;;;;;;;;23.26;57.71;100108.41;2028849;29;19914;-55
2022/06/12 00:13:25;;;;;;;;;;;;;;;23.26;58.21;100102.09;2034186;28;19914;-56
2022/06/12 00:14:26;;;;;;;;;;;;;;;23.26;58.34;100105.63;2032767;28;19996;-56
2022/06/12 00:15:27;;;;;;;;;;;;;;;23.26;58.50;100097.34;2028859;29;19943;-55
2022/06/12 00:16:28;;;;;;;;;;;;;;;23.25;58.62;100098.56;2033063;28;19922;-57
2022/06/12 00:17:29;;;;;;;;;;;;;;;23.26;58.76;100094.59;2039835;28;19929;-56
2022/06/12 00:18:29;;;;;;;;;;;;;;;23.26;58.77;100091.81;2028816;28;20273;-55
2022/06/12 00:19:30;;;;;;;;;;;;;;;23.27;59.01;100093.34;2032518;28;19914;-55
2022/06/12 00:20:30;;;;;;;;;;;;;;;23.26;58.82;100094.59;2031559;28;19914;-56
2022/06/12 00:21:31;;;;;;;;;;;;;;;23.26;58.58;100091.03;2035275;28;19921;-56
2022/06/12 00:22:31;;;;;;;;;;;;;;;23.25;58.48;100084.75;2028807;28;19982;-55
2022/06/12 00:23:32;;;;;;;;;;;;;;;23.26;58.37;100088.28;2029522;28;19957;-55
2022/06/12 00:24:33;;;;;;;;;;;;;;;23.25;58.47;100095.78;2031508;28;20017;-55
2022/06/12 00:25:33;;;;;;;;;;;;;;;23.25;58.48;100092.25;2030691;28;19997;-56
2022/06/12 00:26:39;;;;;;;;;;;;;;;23.25;58.54;100093.03;2028920;29;19919;-54
2022/06/12 00:27:40;;;;;;;;;;;;;;;23.25;58.63;100092.25;2027033;29;19918;-56
2022/06/12 00:28:41;;;;;;;;;;;;;;;23.25;58.86;100093.03;2020791;29;20639;-55
2022/06/12 00:29:42;;;;;;;;;;;;;;;23.25;58.85;100093.03;2026209;29;19922;-56
2022/06/12 00:30:42;;;;;;;;;;;;;;;23.25;58.85;100090.28;2034363;28;19918;-56
2022/06/12 00:31:45;;;;;;;;;;;;;;;23.24;58.46;100094.25;2032926;28;20188;-56
2022/06/12 00:32:49;;;;;;;;;;;;;;;23.25;58.02;100095.03;2021717;29;20046;-56
2022/06/12 00:33:49;;;;;;;;;;;;;;;23.25;58.34;100092.25;2029503;28;19923;-55
2022/06/12 00:34:51;;;;;;;;;;;;;;;23.24;58.34;100085.97;2028867;29;20138;-56
2022/06/12 00:35:51;;;;;;;;;;;;;;;23.24;57.86;100091.47;2031925;28;19918;-56
2022/06/12 00:36:53;;;;;;;;;;;;;;;23.24;58.02;100085.19;2028358;29;20015;-55
2022/06/12 00:37:53;;;;;;;;;;;;;;;23.22;57.71;100093.91;2028872;29;19918;-57
2022/06/12 00:38:54;;;;;;;;;;;;;;;23.24;58.28;100079.66;2033464;28;20218;-55
2022/06/12 00:39:55;;;;;;;;;;;;;;;23.23;58.47;100083.63;2031270;28;19918;-56
2022/06/12 00:40:56;;;;;;;;;;;;;;;23.23;58.58;100089.16;2036050;28;19921;-57
2022/06/12 00:41:57;;;;;;;;;;;;;;;23.22;58.53;100087.59;2031398;28;19929;-56
2022/06/12 00:42:59;;;;;;;;;;;;;;;23.22;58.28;100087.59;2035609;28;19926;-55
2022/06/12 00:44:00;;;;;;;;;;;;;;;23.22;58.53;100082.84;2038682;28;19958;-56
2022/06/12 00:45:01;;;;;;;;;;;;;;;23.22;58.78;100090.34;2031798;28;19915;-56
2022/06/12 00:46:03;;;;;;;;;;;;;;;23.21;58.84;100086.84;2030374;28;20226;-56
2022/06/12 00:47:06;;;;;;;;;;;;;;;23.21;58.81;100084.09;2038086;28;19914;-55
2022/06/12 00:48:11;;;;;;;;;;;;;;;23.22;59.01;100087.59;2030194;28;20642;-56
2022/06/12 00:49:31;;;;;;;;;;;;;;;23.20;58.98;100079.78;2032953;29;19918;-56
2022/06/12 00:50:32;;;;;;;;;;;;;;;23.20;59.09;100088.06;2022956;28;19903;-56
2022/06/12 00:51:33;;;;;;;;;;;;;;;23.21;59.31;100091.59;2030398;29;19914;-55
2022/06/12 00:52:40;;;;;;;;;;;;;;;23.20;58.66;100090.03;2030709;29;19914;-56
2022/06/12 00:53:45;;;;;;;;;;;;;;;23.18;58.08;100093.25;2029321;29;20026;-56
2022/06/12 00:54:47;;;;;;;;;;;;;;;23.18;57.82;100090.47;2021348;29;20014;-56
2022/06/12 00:55:54;;;;;;;;;;;;;;;23.16;58.06;100090.91;2022845;29;20334;-56
2022/06/12 00:56:57;;;;;;;;;;;;;;;23.16;58.10;100081.84;2030394;28;20396;-56
2022/06/12 00:58:06;;;;;;;;;;;;;;;23.16;58.00;100079.09;2028646;28;19918;-55
2022/06/12 00:59:08;;;;;;;;;;;;;;;23.15;58.40;100089.38;2032583;28;19914;-56
2022/06/12 01:00:10;;;;;;;;;;;;;;;23.15;58.55;100081.09;2037770;28;19921;-56
2022/06/12 01:01:16;;;;;;;;;;;;;;;23.15;58.44;100089.38;2032554;28;19918;-55
2022/06/12 01:02:19;;;;;;;;;;;;;;;23.15;58.79;100094.91;2037847;28;19921;-56
2022/06/12 01:03:20;;;;;;;;;;;;;;;23.16;58.97;100090.91;2029610;28;20276;-55
2022/06/12 01:07:02;;;;;;;;;;;;;;;23.15;59.08;100094.13;2037922;28;19914;-54
2022/06/12 01:08:04;;;;;;;;;;;;;;;23.15;59.49;100102.41;2036654;28;19914;-56
2022/06/12 01:09:10;;;;;;;;;;;;;;;23.15;59.93;100105.19;2037662;28;19929;-55
2022/06/12 01:10:12;;;;;;;;;;;;;;;23.15;60.22;100099.66;2027322;29;19915;-56
2022/06/12 01:11:15;;;;;;;;;;;;;;;23.14;60.48;100096.13;2027147;29;20463;-54
2022/06/12 01:12:16;;;;;;;;;;;;;;;23.14;60.08;100089.81;2037419;28;19936;-55
2022/06/12 01:13:19;;;;;;;;;;;;;;;23.13;60.25;100091.81;2033180;28;19915;-55
2022/06/12 01:14:24;;;;;;;;;;;;;;;23.14;60.32;100095.34;2033000;28;19914;-57
2022/06/12 01:15:27;;;;;;;;;;;;;;;23.14;60.40;100098.88;2035996;28;20005;-54
2022/06/12 01:16:27;;;;;;;;;;;;;;;23.13;60.41;100102.84;2029186;28;20624;-56
2022/06/12 01:17:28;;;;;;;;;;;;;;;23.13;60.53;100096.56;2038901;28;20312;-56
2022/06/12 01:18:31;;;;;;;;;;;;;;;23.12;60.62;100103.28;2031857;28;19926;-56
2022/06/12 01:19:41;;;;;;;;;;;;;;;23.12;60.53;100103.28;2031173;29;19915;-56
2022/06/12 01:20:51;;;;;;;;;;;;;;;23.13;60.47;100102.06;2035151;28;20191;-55
2022/06/12 01:22:00;;;;;;;;;;;;;;;23.12;60.47;100109.59;2035078;28;19914;-55
2022/06/12 01:23:19;;;;;;;;;;;;;;;23.12;60.21;100108.81;2030621;28;20009;-56
2022/06/12 01:24:35;;;;;;;;;;;;;;;23.13;60.10;100099.31;2031553;28;19914;-55
2022/06/12 01:25:54;;;;;;;;;;;;;;;23.11;60.24;100099.75;2036054;28;19921;-57
2022/06/12 01:27:13;;;;;;;;;;;;;;;23.11;60.13;100107.25;2037592;28;19934;-56
2022/06/12 01:28:33;;;;;;;;;;;;;;;23.11;60.13;100110.03;2031260;29;19922;-56
2022/06/12 01:29:39;;;;;;;;;;;;;;;23.10;60.14;100114.78;2034207;28;19985;-56
2022/06/12 01:30:43;;;;;;;;;;;;;;;23.11;60.24;100116.31;2026881;29;20414;-55
2022/06/12 01:31:44;;;;;;;;;;;;;;;23.11;60.29;100110.03;2028495;29;19915;-56
2022/06/12 01:33:09;;;;;;;;;;;;;;;23.11;60.34;100115.53;2035497;28;19984;-56
2022/06/12 01:34:17;;;;;;;;;;;;;;;23.10;60.32;100116.78;2031160;28;19918;-56
2022/06/12 01:35:21;;;;;;;;;;;;;;;23.10;60.49;100114.03;2033926;28;19953;-55
2022/06/12 01:36:25;;;;;;;;;;;;;;;23.10;60.36;100120.31;2034725;28;19974;-56
2022/06/12 01:37:29;;;;;;;;;;;;;;;23.10;60.41;100123.09;2034594;28;20301;-56
2022/06/12 01:38:38;;;;;;;;;;;;;;;23.09;60.46;100116.00;2034773;28;19914;-56
2022/06/12 01:40:02;;;;;;;;;;;;;;;23.09;60.44;100115.22;2032758;28;19953;-56
2022/06/12 01:41:21;;;;;;;;;;;;;;;23.09;60.42;100118.78;2029987;29;19913;-55
2022/06/12 01:42:33;;;;;;;;;;;;;;;23.09;60.23;100118.00;2027996;28;19918;-55
2022/06/12 01:43:43;;;;;;;;;;;;;;;23.08;60.69;100113.66;2026790;29;19917;-56
2022/06/12 01:44:43;;;;;;;;;;;;;;;23.09;60.79;100112.47;2034259;28;19918;-55
2022/06/12 01:46:00;;;;;;;;;;;;;;;23.08;60.91;100110.91;2037947;28;20126;-56
2022/06/12 01:47:00;;;;;;;;;;;;;;;23.08;61.16;100113.66;2022918;29;20161;-56
2022/06/12 01:48:04;;;;;;;;;;;;;;;23.08;60.84;100110.91;2031293;28;19907;-56
2022/06/12 01:49:16;;;;;;;;;;;;;;;23.09;60.96;100118.00;2033156;28;19966;-56
2022/06/12 01:50:31;;;;;;;;;;;;;;;23.07;60.92;100112.13;2029801;28;19915;-56
2022/06/12 01:51:48;;;;;;;;;;;;;;;23.07;60.56;100109.34;2035708;28;19947;-56
2022/06/12 01:52:55;;;;;;;;;;;;;;;23.06;60.51;100118.84;2018438;29;20356;-56
2022/06/12 01:54:03;;;;;;;;;;;;;;;23.06;60.63;100113.31;2025276;29;19915;-54
2022/06/12 01:55:07;;;;;;;;;;;;;;;23.06;60.61;100113.31;2027502;28;19915;-55
2022/06/12 01:56:10;;;;;;;;;;;;;;;23.05;60.71;100115.31;2038381;28;19914;-56
2022/06/12 01:57:13;;;;;;;;;;;;;;;23.06;60.94;100121.63;2029743;29;20645;-56
2022/06/12 01:58:22;;;;;;;;;;;;;;;23.05;60.85;100122.84;2031238;28;19950;-56
2022/06/12 01:59:22;;;;;;;;;;;;;;;23.06;60.88;100121.63;2028319;28;19914;-56
2022/06/12 02:00:24;;;;;;;;;;;;;;;23.04;60.92;100118.53;2030483;29;19992;-54
2022/06/12 02:01:28;;;;;;;;;;;;;;;23.04;60.87;100118.53;2032806;28;20299;-54
2022/06/12 02:02:50;;;;;;;;;;;;;;;23.05;60.59;100120.84;2036536;28;19922;-57
2022/06/12 02:04:03;;;;;;;;;;;;;;;23.04;60.90;100124.06;2038051;28;19914;-55
2022/06/12 02:05:07;;;;;;;;;;;;;;;23.03;60.94;100125.28;2029341;29;19918;-55
2022/06/12 02:06:12;;;;;;;;;;;;;;;23.02;60.69;100124.50;2030019;28;21209;-56
2022/06/12 02:07:27;;;;;;;;;;;;;;;23.01;60.53;100114.66;2028494;29;19978;-56
2022/06/12 02:08:37;;;;;;;;;;;;;;;23.02;60.44;100123.72;2028824;29;19921;-56
2022/06/12 02:09:47;;;;;;;;;;;;;;;23.02;60.47;100124.50;2029049;28;20013;-55
2022/06/12 02:13:11;;;;;;;;;;;;;;;23.01;60.45;100119.41;2035949;28;20498;-55
2022/06/12 02:13:46;;;;;;;;;;;;;;;23.00;60.41;100112.34;2034596;28;20458;-56
2022/06/12 02:14:49;;;;;;;;;;;;;;;23.00;60.38;100109.59;2038408;28;19910;-56
2022/06/12 02:15:55;;;;;;;;;;;;;;;23.00;60.22;100109.59;2034886;28;19915;-55
2022/06/12 02:16:57;;;;;;;;;;;;;;;22.99;60.27;100117.09;2039832;28;20380;-55
2022/06/12 02:18:10;;;;;;;;;;;;;;;22.99;60.21;100130.91;2034762;28;19914;-55
2022/06/12 02:19:15;;;;;;;;;;;;;;;22.99;60.40;100125.38;2035410;28;19960;-56
2022/06/12 02:20:18;;;;;;;;;;;;;;;22.99;60.29;100124.59;2035113;28;19925;-55
2022/06/12 02:21:25;;;;;;;;;;;;;;;22.98;60.31;100123.81;2037620;28;19914;-56
2022/06/12 02:22:27;;;;;;;;;;;;;;;22.99;60.35;100125.38;2036331;28;19918;-56
2022/06/12 02:23:34;;;;;;;;;;;;;;;22.99;60.34;100132.88;2030167;28;20021;-55
2022/06/12 02:24:38;;;;;;;;;;;;;;;22.98;60.35;100123.81;2030033;29;19915;-56
2022/06/12 02:25:40;;;;;;;;;;;;;;;22.99;60.30;100130.13;2035565;28;20371;-56
2022/06/12 02:26:45;;;;;;;;;;;;;;;22.99;60.40;100130.13;2035616;28;19915;-56
2022/06/12 02:28:06;;;;;;;;;;;;;;;22.99;60.52;100132.88;2029810;29;19917;-56
2022/06/12 02:29:10;;;;;;;;;;;;;;;22.98;60.53;100134.09;2036050;29;20424;-56
2022/06/12 02:30:40;;;;;;;;;;;;;;;22.98;60.70;100134.88;2035158;28;19961;-55
2022/06/12 02:31:42;;;;;;;;;;;;;;;22.98;60.65;100145.16;2014188;28;19907;-56
2022/06/12 02:32:42;;;;;;;;;;;;;;;22.98;60.64;100150.66;2039994;28;19961;-56
2022/06/12 02:33:45;;;;;;;;;;;;;;;22.97;60.67;100143.59;2038771;28;19995;-55
2022/06/12 02:34:50;;;;;;;;;;;;;;;22.96;60.62;100148.34;2027106;29;19915;-56
2022/06/12 02:35:56;;;;;;;;;;;;;;;22.96;60.79;100142.81;2036496;28;19914;-56
2022/06/12 02:37:10;;;;;;;;;;;;;;;22.95;60.77;100149.53;2028696;29;20342;-55
2022/06/12 02:38:17;;;;;;;;;;;;;;;22.94;60.85;100139.72;2032337;28;19915;-55
2022/06/12 02:39:21;;;;;;;;;;;;;;;22.95;60.98;100148.75;2030336;28;20426;-56
2022/06/12 02:40:24;;;;;;;;;;;;;;;22.95;60.95;100140.47;2019183;29;19923;-56
2022/06/12 02:42:00;;;;;;;;;;;;;;;22.94;61.02;100150.78;2022760;29;19978;-56
2022/06/12 02:43:04;;;;;;;;;;;;;;;22.94;61.07;100148.03;2007714;29;19915;-55
2022/06/12 02:44:09;;;;;;;;;;;;;;;22.94;61.15;100150.00;2011955;29;20104;-55
2022/06/12 02:45:39;;;;;;;;;;;;;;;22.94;61.13;100144.47;2016547;29;20003;-56
2022/06/12 02:46:45;;;;;;;;;;;;;;;22.93;61.17;100142.91;2028572;29;19965;-56
2022/06/12 02:47:46;;;;;;;;;;;;;;;22.93;61.35;100138.19;2030770;28;19997;-55
2022/06/12 02:48:47;;;;;;;;;;;;;;;22.92;61.29;100135.84;2029918;29;20345;-55
2022/06/12 02:49:48;;;;;;;;;;;;;;;22.94;61.26;100136.19;2027923;28;19911;-56
2022/06/12 02:50:48;;;;;;;;;;;;;;;22.91;61.55;100132.31;2032069;28;20261;-56
2022/06/12 02:51:57;;;;;;;;;;;;;;;22.91;61.17;100128.75;2028278;28;19954;-56
2022/06/12 02:53:16;;;;;;;;;;;;;;;22.90;61.01;100127.22;2029422;29;20664;-56
2022/06/12 02:54:23;;;;;;;;;;;;;;;22.89;61.04;100126.47;2027948;28;20009;-55
2022/06/12 02:55:23;;;;;;;;;;;;;;;22.88;60.98;100124.91;2031960;28;19926;-56
2022/06/12 02:56:23;;;;;;;;;;;;;;;22.87;60.93;100117.81;2037026;28;19922;-54
2022/06/12 02:58:02;;;;;;;;;;;;;;;22.86;60.77;100115.50;2032173;28;19938;-55
2022/06/12 02:59:26;;;;;;;;;;;;;;;22.85;60.58;100117.47;1990341;29;20303;-55
2022/06/12 03:00:27;;;;;;;;;;;;;;;22.85;60.54;100116.69;1984486;29;20767;-56
2022/06/12 03:01:48;;;;;;;;;;;;;;;22.84;60.55;100115.19;1982823;29;19993;-56
2022/06/12 03:02:53;;;;;;;;;;;;;;;22.83;60.49;100108.09;1989124;29;19921;-54
2022/06/12 03:04:16;;;;;;;;;;;;;;;22.85;60.72;100111.19;1980858;29;19924;-56
2022/06/12 03:05:22;;;;;;;;;;;;;;;22.85;60.53;100111.19;2029114;28;20013;-55
2022/06/12 03:06:26;;;;;;;;;;;;;;;22.85;60.63;100116.69;2037177;28;20542;-54
2022/06/12 03:07:28;;;;;;;;;;;;;;;22.85;60.38;100108.41;2035174;28;20397;-55
2022/06/12 03:08:31;;;;;;;;;;;;;;;22.86;60.43;100109.97;2033738;28;19970;-54
2022/06/12 03:09:32;;;;;;;;;;;;;;;22.85;60.39;100105.66;2037077;28;20017;-56
2022/06/12 03:10:37;;;;;;;;;;;;;;;22.84;60.48;100115.94;2034398;28;19917;-55
2022/06/12 03:11:40;;;;;;;;;;;;;;;22.85;60.49;100113.94;2032562;28;19925;-56
2022/06/12 03:12:41;;;;;;;;;;;;;;;22.84;60.64;100101.38;2043648;28;19913;-56
2022/06/12 03:13:42;;;;;;;;;;;;;;;22.83;60.65;100111.63;2035317;28;19919;-56
2022/06/12 03:14:42;;;;;;;;;;;;;;;22.84;61.02;100117.94;2037816;28;20222;-55
2022/06/12 03:15:46;;;;;;;;;;;;;;;22.84;60.97;100115.19;2028179;29;20546;-56
2022/06/12 03:16:46;;;;;;;;;;;;;;;22.83;60.91;100121.91;2022366;29;20622;-56
2022/06/12 03:17:47;;;;;;;;;;;;;;;22.83;60.97;100108.88;2036039;29;19910;-54
2022/06/12 03:18:54;;;;;;;;;;;;;;;22.83;60.93;100124.66;2035605;28;19915;-56
2022/06/12 03:19:55;;;;;;;;;;;;;;;22.82;61.02;100118.38;2029859;29;19941;-56
2022/06/12 03:20:56;;;;;;;;;;;;;;;22.81;61.00;100119.56;2027019;29;20854;-55
2022/06/12 03:21:59;;;;;;;;;;;;;;;22.81;61.02;100122.34;2032062;28;19911;-56
2022/06/12 03:23:06;;;;;;;;;;;;;;;22.82;61.12;100123.13;2037082;28;19930;-55
2022/06/12 03:24:17;;;;;;;;;;;;;;;22.82;61.04;100132.19;2040015;28;20160;-56
2022/06/12 03:25:30;;;;;;;;;;;;;;;22.83;61.14;100138.47;2030621;29;20279;-55
2022/06/12 03:26:30;;;;;;;;;;;;;;;22.82;61.10;100131.41;2026989;28;19978;-56
2022/06/12 03:27:43;;;;;;;;;;;;;;;22.82;61.16;100128.63;2030837;29;19981;-55
2022/06/12 03:28:52;;;;;;;;;;;;;;;22.82;61.09;100142.44;2027824;29;19919;-55
2022/06/12 03:29:52;;;;;;;;;;;;;;;22.81;61.26;100127.84;2028083;29;19930;-56
2022/06/12 03:30:59;;;;;;;;;;;;;;;22.81;61.42;100135.38;2029491;29;20129;-56
2022/06/12 03:32:10;;;;;;;;;;;;;;;22.82;61.17;100139.69;2033636;28;19907;-55
2022/06/12 03:33:10;;;;;;;;;;;;;;;22.80;61.30;100140.13;2034632;28;20306;-55
2022/06/12 03:34:17;;;;;;;;;;;;;;;22.80;61.30;100145.63;2037580;28;19957;-56
2022/06/12 03:35:36;;;;;;;;;;;;;;;22.81;61.34;100149.19;2038496;28;19938;-56
2022/06/12 03:36:41;;;;;;;;;;;;;;;22.81;61.29;100151.94;2034001;28;19954;-54
2022/06/12 03:37:49;;;;;;;;;;;;;;;22.80;61.40;100144.84;2035669;28;19914;-56
2022/06/12 03:39:11;;;;;;;;;;;;;;;22.79;61.49;100146.84;2029070;29;20728;-56
2022/06/12 03:40:26;;;;;;;;;;;;;;;22.80;61.62;100155.91;2034368;28;19993;-56
2022/06/12 03:41:27;;;;;;;;;;;;;;;22.80;61.62;100158.66;2031114;29;19918;-56
2022/06/12 03:42:33;;;;;;;;;;;;;;;22.79;61.58;100157.88;2032530;28;19914;-56
2022/06/12 03:43:38;;;;;;;;;;;;;;;22.79;61.53;100155.13;2035194;28;19948;-55
2022/06/12 03:44:38;;;;;;;;;;;;;;;22.79;61.65;100155.13;2034773;28;19906;-56
2022/06/12 03:45:39;;;;;;;;;;;;;;;22.79;61.82;100159.91;2035614;28;20450;-53
2022/06/12 03:46:58;;;;;;;;;;;;;;;22.78;62.01;100163.88;2036167;28;19914;-56
2022/06/12 03:48:18;;;;;;;;;;;;;;;22.77;61.89;100160.31;2026770;29;20317;-56
2022/06/12 03:49:34;;;;;;;;;;;;;;;22.76;61.81;100158.78;2020091;28;20799;-54
2022/06/12 03:50:46;;;;;;;;;;;;;;;22.76;61.93;100152.47;2036273;28;20305;-56
2022/06/12 03:51:52;;;;;;;;;;;;;;;22.76;61.98;100156.00;2029089;29;20356;-54
2022/06/12 03:52:56;;;;;;;;;;;;;;;22.75;62.01;100159.97;2033703;28;20335;-55
2022/06/12 03:54:00;;;;;;;;;;;;;;;22.74;62.02;100161.97;2030880;28;20225;-55
2022/06/12 03:55:03;;;;;;;;;;;;;;;22.76;61.94;100166.28;2029028;29;19947;-56
2022/06/12 03:57:59;;;;;;;;;;;;;;;22.74;61.97;100178.53;1986442;29;20308;-55
2022/06/12 03:59:07;;;;;;;;;;;;;;;22.73;62.11;100179.75;2033273;28;19965;-55
2022/06/12 04:00:13;;;;;;;;;;;;;;;22.74;62.26;100186.03;2034194;28;19957;-56
2022/06/12 04:01:14;;;;;;;;;;;;;;;22.73;62.30;100182.53;2023340;29;19914;-55
2022/06/12 04:02:17;;;;;;;;;;;;;;;22.73;62.32;100188.03;2031490;29;19914;-54
2022/06/12 04:03:27;;;;;;;;;;;;;;;22.72;62.15;100194.78;2034937;28;19962;-57
2022/06/12 04:04:30;;;;;;;;;;;;;;;22.72;62.22;100188.47;2030250;29;20305;-56
2022/06/12 04:05:33;;;;;;;;;;;;;;;22.72;62.25;100192.00;2036276;28;20453;-54
2022/06/12 04:06:34;;;;;;;;;;;;;;;22.72;62.32;100194.78;2033591;28;19954;-56
2022/06/12 04:07:38;;;;;;;;;;;;;;;22.71;62.14;100193.22;2033278;28;20470;-56
2022/06/12 04:08:44;;;;;;;;;;;;;;;22.71;62.17;100197.97;2036720;28;19914;-55
2022/06/12 04:09:46;;;;;;;;;;;;;;;22.71;62.30;100198.72;2034356;28;19976;-56
2022/06/12 04:10:47;;;;;;;;;;;;;;;22.71;62.16;100200.72;2027927;29;19921;-55
2022/06/12 04:11:53;;;;;;;;;;;;;;;22.70;62.14;100202.66;2035674;28;19910;-56
2022/06/12 04:12:54;;;;;;;;;;;;;;;22.70;62.18;100202.66;2034836;28;19918;-56
2022/06/12 04:13:55;;;;;;;;;;;;;;;22.70;62.06;100210.94;2034082;28;20297;-52
2022/06/12 04:15:02;;;;;;;;;;;;;;;22.70;62.07;100207.41;2031002;29;20839;-56
2022/06/12 04:16:23;;;;;;;;;;;;;;;22.69;62.14;100212.16;2034511;28;19914;-55
2022/06/12 04:17:24;;;;;;;;;;;;;;;22.68;61.72;100216.13;2017268;29;19918;-56
2022/06/12 04:18:25;;;;;;;;;;;;;;;22.69;61.73;100214.13;2035098;28;20007;-57
2022/06/12 04:19:27;;;;;;;;;;;;;;;22.69;61.93;100211.38;2030276;29;19921;-55
2022/06/12 04:20:35;;;;;;;;;;;;;;;22.68;62.12;100207.09;2033183;28;19914;-56
2022/06/12 04:21:44;;;;;;;;;;;;;;;22.68;62.15;100205.09;2035522;28;20334;-54
2022/06/12 04:22:48;;;;;;;;;;;;;;;22.67;62.41;100203.56;2033068;29;19915;-56
2022/06/12 04:23:52;;;;;;;;;;;;;;;22.67;62.52;100209.06;2034672;28;20004;-56
2022/06/12 04:24:55;;;;;;;;;;;;;;;22.67;62.45;100211.84;2035021;28;19921;-56
2022/06/12 04:25:58;;;;;;;;;;;;;;;22.67;62.42;100208.28;2039627;28;19920;-56
2022/06/12 04:27:05;;;;;;;;;;;;;;;22.66;62.45;100213.03;2038916;28;20464;-56
2022/06/12 04:28:06;;;;;;;;;;;;;;;22.65;62.54;100219.75;2038426;28;19918;-56
2022/06/12 04:29:13;;;;;;;;;;;;;;;22.65;62.45;100219.75;2037622;28;20363;-56
2022/06/12 04:30:22;;;;;;;;;;;;;;;22.65;62.34;100213.47;2038153;28;20126;-55
2022/06/12 04:31:22;;;;;;;;;;;;;;;22.65;62.38;100217.00;2035567;28;19914;-54
2022/06/12 04:32:24;;;;;;;;;;;;;;;22.65;62.44;100210.69;2038164;28;19962;-56
2022/06/12 04:33:29;;;;;;;;;;;;;;;22.65;62.51;100216.22;2036907;28;19937;-56
2022/06/12 04:34:38;;;;;;;;;;;;;;;22.64;62.42;100220.97;2036781;28;20203;-56
2022/06/12 04:35:41;;;;;;;;;;;;;;;22.63;62.67;100221.44;2031061;29;19911;-56
2022/06/12 04:36:44;;;;;;;;;;;;;;;22.62;62.77;100223.41;2035651;28;19914;-56
2022/06/12 04:37:44;;;;;;;;;;;;;;;22.62;62.74;100223.41;2037916;28;19919;-56
2022/06/12 04:38:45;;;;;;;;;;;;;;;22.63;63.17;100218.66;2030534;29;19988;-56
2022/06/12 04:39:46;;;;;;;;;;;;;;;22.61;62.89;100221.84;2026407;29;19957;-55
2022/06/12 04:40:46;;;;;;;;;;;;;;;22.61;62.94;100216.31;2037790;28;20480;-55
2022/06/12 04:41:47;;;;;;;;;;;;;;;22.61;62.79;100227.38;2034100;28;20072;-56
2022/06/12 04:42:48;;;;;;;;;;;;;;;22.60;62.68;100220.28;2032454;28;19918;-56
2022/06/12 04:43:48;;;;;;;;;;;;;;;22.61;62.95;100227.38;2038657;28;19921;-56
2022/06/12 04:44:49;;;;;;;;;;;;;;;22.60;63.06;100214.78;2035250;28;19906;-56
2022/06/12 04:45:49;;;;;;;;;;;;;;;22.61;63.03;100215.56;2037650;28;20155;-55
2022/06/12 04:46:51;;;;;;;;;;;;;;;22.60;63.45;100214.78;2036203;28;19906;-56
2022/06/12 04:47:52;;;;;;;;;;;;;;;22.59;63.43;100210.44;2035255;28;19907;-56
2022/06/12 04:48:54;;;;;;;;;;;;;;;22.59;63.38;100221.50;2029582;29;19918;-54
2022/06/12 04:49:55;;;;;;;;;;;;;;;22.59;63.12;100224.25;2028956;28;19915;-56
2022/06/12 04:50:56;;;;;;;;;;;;;;;22.59;62.95;100229.00;2032631;28;19935;-56
2022/06/12 04:51:57;;;;;;;;;;;;;;;22.58;62.77;100228.22;2034507;28;19910;-56
2022/06/12 04:52:58;;;;;;;;;;;;;;;22.59;62.90;100234.53;2030899;28;19915;-55
2022/06/12 04:53:59;;;;;;;;;;;;;;;22.58;62.96;100230.19;2032778;28;20314;-56
2022/06/12 04:54:59;;;;;;;;;;;;;;;22.58;63.09;100239.25;2037980;28;19911;-56
2022/06/12 04:55:59;;;;;;;;;;;;;;;22.58;63.24;100244.00;2030300;28;19914;-56
2022/06/12 04:57:00;;;;;;;;;;;;;;;22.58;63.34;100239.25;2038294;28;19921;-54
2022/06/12 04:58:00;;;;;;;;;;;;;;;22.57;62.99;100246.00;2034874;28;19920;-55
2022/06/12 04:59:01;;;;;;;;;;;;;;;22.57;63.02;100248.00;2030024;29;19918;-56
2022/06/12 05:00:02;;;;;;;;;;;;;;;22.58;63.44;100250.31;2035607;28;19949;-55
2022/06/12 05:01:03;;;;;;;;;;;;;;;22.56;63.37;100252.75;2033294;28;19914;-56
2022/06/12 05:02:04;;;;;;;;;;;;;;;22.56;63.81;100252.75;2034898;28;19925;-56
2022/06/12 05:03:04;;;;;;;;;;;;;;;22.57;63.97;100248.00;2032448;29;19906;-54
2022/06/12 05:04:05;;;;;;;;;;;;;;;22.57;63.87;100246.00;2032567;28;20220;-56
2022/06/12 05:05:06;;;;;;;;;;;;;;;22.57;63.84;100254.28;2029353;29;20288;-56
2022/06/12 05:06:06;;;;;;;;;;;;;;;22.56;64.08;100255.50;2036378;28;20182;-57
2022/06/12 05:07:07;;;;;;;;;;;;;;;22.57;63.85;100253.50;2036955;28;19930;-55
2022/06/12 05:08:08;;;;;;;;;;;;;;;22.55;63.61;100256.69;2030503;28;19954;-56
2022/06/12 05:09:09;;;;;;;;;;;;;;;22.55;63.56;100256.69;2034010;28;19918;-56
2022/06/12 05:10:13;;;;;;;;;;;;;;;22.55;63.64;100262.22;2034631;28;20870;-55
2022/06/12 05:11:14;;;;;;;;;;;;;;;22.55;63.36;100262.22;2031528;29;19914;-56
2022/06/12 05:12:14;;;;;;;;;;;;;;;22.55;63.19;100267.75;2032363;28;20305;-54
2022/06/12 05:13:15;;;;;;;;;;;;;;;22.54;63.44;100260.66;2038243;28;20376;-56
2022/06/12 05:14:15;;;;;;;;;;;;;;;22.54;63.63;100260.66;2035822;28;20119;-56
2022/06/12 05:15:16;;;;;;;;;;;;;;;22.55;63.65;100266.97;2034754;28;19929;-56
2022/06/12 05:16:22;;;;;;;;;;;;;;;22.54;63.62;100266.19;2038806;29;19914;-57
2022/06/12 05:17:23;;;;;;;;;;;;;;;22.54;63.57;100266.19;2035097;28;20625;-56
2022/06/12 05:18:23;;;;;;;;;;;;;;;22.54;63.81;100271.72;2034716;28;19921;-55
2022/06/12 05:19:25;;;;;;;;;;;;;;;22.54;63.62;100271.72;2033556;29;19969;-54
2022/06/12 05:20:26;;;;;;;;;;;;;;;22.54;63.81;100270.91;2028966;29;19978;-56
2022/06/12 05:21:28;;;;;;;;;;;;;;;22.53;63.99;100272.91;2028192;29;19911;-55
2022/06/12 05:22:28;;;;;;;;;;;;;;;22.53;64.12;100281.19;2030033;29;20001;-55
2022/06/12 05:23:28;;;;;;;;;;;;;;;22.52;63.91;100274.13;2028924;28;20476;-55
2022/06/12 05:24:29;;;;;;;;;;;;;;;22.53;63.84;100286.72;2029794;29;19915;-56
2022/06/12 05:25:30;;;;;;;;;;;;;;;22.52;63.65;100279.66;2031552;28;19914;-55
2022/06/12 05:26:33;;;;;;;;;;;;;;;22.52;63.38;100279.66;2029450;28;19921;-56
2022/06/12 05:27:33;;;;;;;;;;;;;;;22.53;63.45;100277.66;2030599;29;19915;-55
2022/06/12 05:28:33;;;;;;;;;;;;;;;22.51;63.42;100280.09;2032300;28;19915;-55
2022/06/12 05:29:35;;;;;;;;;;;;;;;22.51;63.29;100269.81;2037154;28;20229;-56
2022/06/12 05:30:35;;;;;;;;;;;;;;;22.51;62.85;100271.81;2030135;28;20331;-54
2022/06/12 05:31:36;;;;;;;;;;;;;;;22.50;62.82;100262.75;2028405;29;19965;-56
2022/06/12 05:32:36;;;;;;;;;;;;;;;22.50;62.81;100265.50;2030879;29;19914;-56
2022/06/12 05:33:37;;;;;;;;;;;;;;;22.50;63.16;100267.47;2029203;28;19938;-55
2022/06/12 05:34:37;;;;;;;;;;;;;;;22.51;63.41;100271.81;2030080;28;20245;-56
2022/06/12 05:35:38;;;;;;;;;;;;;;;22.50;63.39;100265.50;2030000;29;20191;-55
2022/06/12 05:36:38;;;;;;;;;;;;;;;22.49;63.71;100269.47;2029130;29;19921;-55
2022/06/12 05:37:39;;;;;;;;;;;;;;;22.51;63.68;100277.31;2028943;29;19980;-55
2022/06/12 05:38:40;;;;;;;;;;;;;;;22.49;63.23;100263.94;2029793;29;20020;-55